Terminal Aerodrome Forecast
Issued by NWS

Home | Current Version | Previous Version | Text Only | Print | Product List | Glossary On
Versions: 1 2 3 4 5 6 7 8 9 10 11 12
193
FTUS46 KMTR 251731
TAFSJC
TAF
KSJC 251731Z 2518/2618 24006KT P6SM SKC
     FM252100 28010KT P6SM FEW250
     FM260500 29005KT P6SM FEW250
     FM260900 15006KT P6SM FEW010
     FM261700 18004KT P6SM SKC=

USA.gov is the U.S. government's official web portal to all federal, state and local government web resources and services.